Calanus - UK — GBJK — position and weather

sailwx.info

Track history (hours):
 
Tides and Currents Weather Stations Pressure Air Temp Water Temp Dewpoint Dewpoint Depression Visibility Wind Speed Wind Dir Waves Ship Positions

Oceanographic research ship Calanus - UK (UK)

Detailed information on ship capabilities available from University of Delaware's Ocean Information Center.

Last reported at 2019-Jun-13 14:24 UTC. Time now 2019-Jun-19 20:53 UTC.
Position N 56°27' W 005°26'.

Length 19 m.

Type: Dredging. MMSI: 235050871.

Date/timePositionNaut miles runAvg speedWind from/ knotsBaromVisibWave heightAir tempDewpointWater temp
2019-Jun-13 14:24N 56°27' W 005°26'1 1.4
2019-Jun-13 13:52N 56°28' W 005°27'1 2.2
2019-Jun-13 13:23N 56°29' W 005°26'0 0.0
2019-Jun-13 12:58N 56°29' W 005°26'0 0.2
2019-Jun-13 12:30N 56°29' W 005°26'0 0.2
2019-Jun-13 11:57N 56°28' W 005°26'0 0.3
2019-Jun-13 11:20N 56°29' W 005°26'0 0.1
2019-Jun-13 10:44N 56°29' W 005°26'0 0.2
2019-Jun-13 10:30N 56°29' W 005°26'0 0.5
2019-Jun-13 10:00N 56°28' W 005°27'0 0.5
2019-Jun-13 09:29N 56°29' W 005°26'0 0.1
2019-Jun-13 08:59N 56°29' W 005°26'0 0.5
2019-Jun-13 08:29N 56°28' W 005°26'1 0.1
2019-Jun-12 09:27N 56°27' W 005°26'1 1.1
2019-Jun-12 08:57N 56°28' W 005°27'2 4.3
2019-Jun-12 08:29N 56°28' W 005°30'1 1.9
2019-Jun-12 07:51N 56°27' W 005°28'1 0.1
2019-Jun-11 16:39N 56°27' W 005°26'1 4.1
2019-Jun-11 16:25N 56°28' W 005°28'5 0.6
2019-Jun-11 08:26N 56°27' W 005°37'4 7.8
2019-Jun-11 07:59N 56°27' W 005°30'2 4.6
2019-Jun-11 07:28N 56°27' W 005°26'  
Track history (hours):
 
Tides and Currents Weather Stations Pressure Air Temp Water Temp Dewpoint Dewpoint Depression Visibility Wind Speed Wind Dir Waves Ship Positions

Oceanographic research ship Calanus - UK (UK)

Detailed information on ship capabilities available from University of Delaware's Ocean Information Center.

Last reported at 2019-Jun-13 14:24 UTC. Time now 2019-Jun-19 20:53 UTC.
Position N 56°27' W 005°26'.

Length 19 m.

Type: Dredging. MMSI: 235050871.

Date/timePositionNaut miles runAvg speedWind from/ knotsBaromVisibWave heightAir tempDewpointWater temp
2019-Jun-13 14:24N 56°27' W 005°26'1 1.4
2019-Jun-13 13:52N 56°28' W 005°27'1 2.2
2019-Jun-13 13:23N 56°29' W 005°26'0 0.0
2019-Jun-13 12:58N 56°29' W 005°26'0 0.2
2019-Jun-13 12:30N 56°29' W 005°26'0 0.2
2019-Jun-13 11:57N 56°28' W 005°26'0 0.3
2019-Jun-13 11:20N 56°29' W 005°26'0 0.1
2019-Jun-13 10:44N 56°29' W 005°26'0 0.2
2019-Jun-13 10:30N 56°29' W 005°26'0 0.5
2019-Jun-13 10:00N 56°28' W 005°27'0 0.5
2019-Jun-13 09:29N 56°29' W 005°26'0 0.1
2019-Jun-13 08:59N 56°29' W 005°26'0 0.5
2019-Jun-13 08:29N 56°28' W 005°26'1 0.1
2019-Jun-12 09:27N 56°27' W 005°26'1 1.1
2019-Jun-12 08:57N 56°28' W 005°27'2 4.3
2019-Jun-12 08:29N 56°28' W 005°30'1 1.9
2019-Jun-12 07:51N 56°27' W 005°28'1 0.1
2019-Jun-11 16:39N 56°27' W 005°26'1 4.1
2019-Jun-11 16:25N 56°28' W 005°28'5 0.6
2019-Jun-11 08:26N 56°27' W 005°37'4 7.8
2019-Jun-11 07:59N 56°27' W 005°30'2 4.6
2019-Jun-11 07:28N 56°27' W 005°26'  

Dump ship's entire track history